Terminal Aerodrome Forecast
Issued by NWS

Home | Current Version | Previous Version | Text Only | Print | Product List | Glossary Off
Versions: 1 2 3 4 5 6 7 8 9 10 11 12 13

000
FTUS43 KFGF 152300
TAFBJI
TAF
KBJI 152338Z 1600/1624 13005KT P6SM BKN250
     FM160600 07012KT P6SM OVC100
     FM161500 07014G20KT 5SM -SN BKN035=

USA.gov is the U.S. government's official web portal to all federal, state and local government web resources and services.